KSCH/SCH METAR and TAF weather

Enter ICAO airport designator
Station Type Date Time Source
KSCH METAR 2019/04/25 11:45 UTC NOAA

KSCH 251145Z 30006KT 10SM CLR 07/02 A2997 RMK FIRST


Station Type Date Time Source
KSCH Decoded METAR 2019/04/25 11:45 UTC NOAA

Schenectady Airport, NY, United States (KSCH) 42-51N 073-56W
Apr 25, 2019 - 07:45 AM EDT / 2019.04.25 1145 UTC
Wind: from the WNW (300 degrees) at 7 MPH (6 KT):0
Visibility: 10 mile(s):0
Sky conditions: clear
Temperature: 44 F (7 C)
Dew Point: 35 F (2 C)
Relative Humidity: 70%
Pressure (altimeter): 29.97 in. Hg (1014 hPa)
ob: KSCH 251145Z 30006KT 10SM CLR 07/02 A2997 RMK FIRST
cycle: 12

Station Type Date Time Source
KSCH TAF UTC NOAA

Error!

Example: see airport list